createdAt,value
2023-01-12T00:02:15.527Z,22.47
2023-01-12T00:04:43.760Z,19.27
2023-01-12T00:07:13.967Z,24.17
2023-01-12T00:09:42.212Z,19.57
2023-01-12T00:12:13.253Z,19.93
2023-01-12T00:14:41.471Z,30.37
2023-01-12T00:17:12.058Z,27.03
2023-01-12T00:19:40.486Z,30.87
2023-01-12T00:22:12.091Z,25.57
2023-01-12T00:24:44.323Z,24.90
2023-01-12T00:27:14.944Z,32.67
2023-01-12T00:29:44.499Z,27.83
2023-01-12T00:32:17.058Z,31.93
2023-01-12T00:34:46.823Z,36.43
2023-01-12T00:37:16.913Z,29.10
2023-01-12T00:40:00.986Z,19.90
2023-01-12T00:42:48.955Z,22.50
2023-01-12T00:45:24.196Z,32.90
2023-01-12T00:47:55.763Z,25.20
2023-01-12T00:50:25.565Z,31.00
2023-01-12T00:52:54.854Z,42.73
2023-01-12T00:55:24.151Z,37.93
2023-01-12T00:57:53.877Z,24.27
2023-01-12T01:00:23.654Z,26.47
2023-01-12T01:02:54.551Z,37.80
2023-01-12T01:05:23.876Z,29.10
2023-01-12T01:07:53.445Z,41.10
2023-01-12T01:10:23.167Z,21.77
2023-01-12T01:12:52.561Z,26.37
2023-01-12T01:15:21.971Z,27.93
2023-01-12T01:17:51.248Z,26.00
2023-01-12T01:20:22.091Z,29.00
2023-01-12T01:22:51.581Z,37.70
2023-01-12T01:25:21.167Z,39.97
2023-01-12T01:27:50.724Z,38.37
2023-01-12T01:30:20.205Z,53.30
2023-01-12T01:32:48.403Z,40.50
2023-01-12T01:35:16.738Z,31.53
2023-01-12T01:37:46.289Z,27.57
2023-01-12T01:40:14.724Z,35.70
2023-01-12T01:42:42.993Z,35.07
2023-01-12T01:45:13.532Z,33.33
2023-01-12T01:47:46.048Z,50.30
2023-01-12T01:50:18.628Z,35.17
2023-01-12T01:52:51.787Z,27.60
2023-01-12T01:55:23.356Z,28.63
2023-01-12T01:57:54.366Z,23.60
2023-01-12T02:00:23.768Z,23.67
2023-01-12T02:02:52.686Z,41.43
2023-01-12T02:05:25.439Z,23.33
2023-01-12T02:07:55.942Z,28.43
2023-01-12T02:10:24.226Z,46.30
2023-01-12T02:13:09.656Z,26.33
2023-01-12T02:16:19.524Z,26.20
2023-01-12T02:18:55.169Z,44.37
2023-01-12T02:21:48.742Z,37.07
2023-01-12T02:24:41.922Z,23.70
2023-01-12T02:27:33.193Z,35.17
2023-01-12T02:30:39.566Z,21.47
2023-01-12T02:33:25.032Z,33.30
2023-01-12T02:35:59.536Z,32.03
2023-01-12T02:38:35.955Z,33.33
2023-01-12T02:41:13.181Z,21.03
2023-01-12T02:43:42.652Z,34.83
2023-01-12T02:46:16.488Z,37.43
2023-01-12T02:48:52.659Z,55.30
2023-01-12T02:51:28.307Z,26.77
2023-01-12T02:54:01.383Z,27.40
2023-01-12T02:56:33.219Z,31.90
2023-01-12T02:59:07.266Z,27.87
2023-01-12T03:01:37.629Z,20.37
2023-01-12T03:04:09.144Z,23.93
2023-01-12T03:06:42.078Z,24.43
2023-01-12T03:09:10.903Z,42.77
2023-01-12T03:11:44.208Z,29.57
2023-01-12T03:14:15.667Z,20.33
2023-01-12T03:16:44.063Z,29.07
2023-01-12T03:19:19.363Z,23.00
2023-01-12T03:21:52.401Z,30.20
2023-01-12T03:24:26.549Z,20.87
2023-01-12T03:27:01.373Z,23.67
2023-01-12T03:29:34.096Z,19.33
2023-01-12T03:32:02.829Z,27.10
2023-01-12T03:34:33.961Z,35.47
2023-01-12T03:37:09.047Z,35.70
2023-01-12T03:39:44.422Z,22.27
2023-01-12T03:42:18.554Z,23.90
2023-01-12T03:44:56.157Z,27.00
2023-01-12T03:47:29.247Z,26.23
2023-01-12T03:50:02.686Z,24.03
2023-01-12T03:52:32.215Z,26.33
2023-01-12T03:55:03.041Z,36.50
2023-01-12T03:57:32.849Z,39.47
2023-01-12T04:00:04.137Z,30.10
2023-01-12T04:02:32.243Z,53.77
2023-01-12T04:05:01.826Z,35.90
2023-01-12T04:07:30.202Z,41.00
2023-01-12T04:09:58.339Z,21.70
2023-01-12T04:12:26.448Z,31.47
2023-01-12T04:14:54.620Z,34.53
2023-01-12T04:17:25.328Z,45.03
2023-01-12T04:19:53.669Z,47.40
2023-01-12T04:22:40.563Z,40.23
2023-01-12T04:25:09.987Z,46.03
2023-01-12T04:27:38.468Z,24.77
2023-01-12T04:30:07.554Z,55.40
2023-01-12T04:32:35.712Z,25.10
2023-01-12T04:35:03.850Z,36.67
2023-01-12T04:37:34.818Z,32.10
2023-01-12T04:40:03.126Z,48.37
2023-01-12T04:42:48.369Z,27.63
2023-01-12T04:45:16.655Z,21.10
2023-01-12T04:47:44.871Z,38.13
2023-01-12T04:50:13.174Z,21.70
2023-01-12T04:52:42.732Z,21.83
2023-01-12T04:55:11.118Z,48.33
2023-01-12T04:57:39.265Z,24.90
2023-01-12T05:00:08.835Z,25.17
2023-01-12T05:02:36.947Z,42.77
2023-01-12T05:05:05.927Z,27.90
2023-01-12T05:07:34.082Z,38.20
2023-01-12T05:10:21.246Z,60.93
2023-01-12T05:12:49.317Z,23.73
2023-01-12T05:15:17.552Z,32.97
2023-01-12T05:17:45.910Z,37.43
2023-01-12T05:20:14.036Z,21.33
2023-01-12T05:22:42.202Z,24.63
2023-01-12T05:25:11.786Z,22.50
2023-01-12T05:27:39.984Z,27.50
2023-01-12T05:30:10.486Z,31.50
2023-01-12T05:32:39.470Z,19.00
2023-01-12T05:35:14.119Z,17.33
2023-01-12T05:37:45.956Z,25.40
2023-01-12T05:40:19.855Z,24.27
2023-01-12T05:43:09.385Z,39.73
2023-01-12T05:45:38.130Z,31.13
2023-01-12T05:48:09.637Z,42.47
2023-01-12T05:50:43.703Z,24.73
2023-01-12T05:53:14.857Z,29.70
2023-01-12T05:55:44.607Z,23.97
2023-01-12T05:58:14.173Z,25.30
2023-01-12T06:03:29.710Z,25.80
2023-01-12T06:06:02.086Z,26.47
2023-01-12T06:08:30.278Z,24.30
2023-01-12T06:11:34.804Z,29.53
2023-01-12T06:16:51.094Z,35.20
2023-01-12T06:19:30.345Z,20.30
2023-01-12T06:22:12.315Z,17.80
2023-01-12T06:24:45.366Z,29.73
2023-01-12T06:27:18.872Z,28.10
2023-01-12T06:29:49.920Z,19.93
2023-01-12T06:32:19.153Z,24.60
2023-01-12T06:34:48.697Z,36.57
2023-01-12T06:37:22.155Z,40.40
2023-01-12T06:39:52.900Z,18.73
2023-01-12T06:42:42.856Z,49.10
2023-01-12T06:45:18.359Z,34.93
2023-01-12T06:47:49.488Z,32.90
2023-01-12T06:50:26.410Z,28.30
2023-01-12T06:53:11.603Z,55.47
2023-01-12T06:55:40.267Z,77.80
2023-01-12T06:58:09.948Z,29.50
2023-01-12T07:00:54.734Z,31.90
2023-01-12T07:03:24.562Z,49.53
2023-01-12T07:05:55.252Z,26.60
2023-01-12T07:08:24.562Z,25.77
2023-01-12T07:10:52.728Z,24.50
2023-01-12T07:13:29.308Z,16.33
2023-01-12T07:16:04.204Z,27.73
2023-01-12T07:18:36.715Z,68.03
2023-01-12T07:21:11.562Z,22.40
2023-01-12T07:23:42.722Z,20.17
2023-01-12T07:26:19.198Z,24.83
2023-01-12T07:29:05.453Z,32.60
2023-01-12T07:31:35.923Z,21.80
2023-01-12T07:34:06.713Z,18.37
2023-01-12T07:36:35.311Z,17.50
2023-01-12T07:39:06.943Z,15.83
2023-01-12T07:41:54.047Z,16.13
2023-01-12T07:44:23.705Z,24.60
2023-01-12T07:46:52.296Z,20.93
2023-01-12T07:49:23.142Z,21.83
2023-01-12T07:52:08.149Z,16.67
2023-01-12T07:54:36.550Z,24.17
2023-01-12T07:57:04.706Z,14.83
2023-01-12T07:59:36.824Z,14.33
2023-01-12T08:02:07.032Z,16.60
2023-01-12T08:04:35.617Z,14.13
2023-01-12T08:07:06.859Z,23.67
2023-01-12T08:09:36.344Z,18.00
2023-01-12T08:12:08.370Z,15.80
2023-01-12T08:14:42.814Z,12.90
2023-01-12T08:17:21.833Z,17.33
2023-01-12T08:19:54.209Z,19.33
2023-01-12T08:22:28.129Z,18.40
2023-01-12T08:25:04.069Z,17.93
2023-01-12T08:27:38.244Z,16.57
2023-01-12T08:30:09.869Z,26.83
2023-01-12T08:32:40.960Z,21.87
2023-01-12T08:35:12.805Z,15.50
2023-01-12T08:37:44.427Z,12.67
2023-01-12T08:40:18.395Z,15.20
2023-01-12T08:42:47.650Z,16.50
2023-01-12T08:45:22.070Z,13.63
2023-01-12T08:48:00.529Z,11.40
2023-01-12T08:50:35.811Z,13.13
2023-01-12T08:53:06.486Z,16.10
2023-01-12T08:55:39.038Z,12.57
2023-01-12T08:58:07.792Z,8.50
2023-01-12T09:00:41.900Z,13.73
2023-01-12T09:03:10.078Z,11.33
2023-01-12T09:05:39.401Z,9.23
2023-01-12T09:08:09.852Z,9.43
2023-01-12T09:10:38.422Z,9.30
2023-01-12T09:13:14.710Z,8.87
2023-01-12T09:16:01.432Z,10.40
2023-01-12T09:18:38.329Z,8.87
2023-01-12T09:21:23.220Z,11.13
2023-01-12T09:23:55.816Z,8.03
2023-01-12T09:26:27.355Z,7.03
2023-01-12T09:28:59.359Z,10.50
2023-01-12T09:31:32.649Z,9.73
2023-01-12T09:34:01.832Z,23.20
2023-01-12T09:36:32.438Z,8.43
2023-01-12T09:39:09.876Z,9.63
2023-01-12T09:42:01.302Z,11.53
2023-01-12T09:44:50.886Z,10.10
2023-01-12T09:47:29.549Z,9.90
2023-01-12T09:50:09.289Z,8.93
2023-01-12T09:52:45.043Z,9.90
2023-01-12T09:55:18.896Z,12.53
2023-01-12T09:58:08.192Z,10.30
2023-01-12T10:00:36.801Z,13.90
2023-01-12T10:03:27.734Z,10.50
2023-01-12T10:05:58.365Z,11.00
2023-01-12T10:08:43.193Z,8.80
2023-01-12T10:11:21.023Z,12.77
2023-01-12T10:14:31.357Z,16.07
2023-01-12T10:17:29.974Z,19.27
2023-01-12T10:20:10.863Z,16.17
2023-01-12T10:22:45.149Z,11.77
2023-01-12T10:25:34.931Z,15.47
2023-01-12T10:28:12.116Z,15.60
2023-01-12T10:30:43.873Z,12.00
2023-01-12T10:33:19.975Z,11.30
2023-01-12T10:36:04.217Z,9.60
2023-01-12T10:38:37.694Z,9.63
2023-01-12T10:41:20.370Z,11.73
2023-01-12T10:44:15.334Z,9.57
2023-01-12T10:46:46.052Z,9.47
2023-01-12T10:49:20.402Z,10.27
2023-01-12T10:51:55.869Z,7.97
2023-01-12T10:54:31.562Z,8.27
2023-01-12T10:57:06.530Z,8.67
2023-01-12T10:59:39.648Z,9.47
2023-01-12T11:02:17.356Z,8.37
2023-01-12T11:04:52.560Z,8.20
2023-01-12T11:07:31.883Z,9.67
2023-01-12T11:10:37.497Z,9.87
2023-01-12T11:13:23.366Z,9.03
2023-01-12T11:16:04.785Z,8.83
2023-01-12T11:18:42.428Z,7.97
2023-01-12T11:21:12.702Z,11.27
2023-01-12T11:23:56.350Z,10.30
2023-01-12T11:26:32.240Z,8.50
2023-01-12T11:29:11.389Z,9.00
2023-01-12T11:31:44.525Z,8.53
2023-01-12T11:34:23.023Z,7.30
2023-01-12T11:37:03.992Z,9.00
2023-01-12T11:39:42.131Z,8.87
2023-01-12T11:42:38.199Z,10.23
2023-01-12T11:45:14.254Z,16.30
2023-01-12T11:47:46.197Z,8.50
2023-01-12T11:50:19.386Z,11.70
2023-01-12T11:52:49.860Z,7.30
2023-01-12T11:55:36.203Z,10.20
2023-01-12T11:58:14.641Z,8.40
2023-01-12T12:01:14.358Z,9.00
2023-01-12T12:04:04.304Z,7.90
2023-01-12T12:06:45.723Z,9.23
2023-01-12T12:09:48.409Z,7.93
2023-01-12T12:12:30.667Z,9.00
2023-01-12T12:15:14.288Z,9.00
2023-01-12T12:17:57.026Z,10.10
2023-01-12T12:20:34.142Z,9.03
2023-01-12T12:23:16.877Z,8.43
2023-01-12T12:25:55.434Z,8.83
2023-01-12T12:28:50.927Z,8.53
2023-01-12T12:31:41.443Z,10.87
2023-01-12T12:34:41.944Z,9.80
2023-01-12T12:37:17.566Z,12.70
2023-01-12T12:40:04.775Z,7.43
2023-01-12T12:43:17.013Z,12.60
2023-01-12T12:46:13.438Z,9.83
2023-01-12T12:48:52.966Z,10.50
2023-01-12T12:51:25.911Z,9.83
2023-01-12T12:54:10.643Z,8.97
2023-01-12T12:56:50.766Z,10.37
2023-01-12T12:59:56.693Z,10.07
2023-01-12T13:02:42.039Z,25.13
2023-01-12T13:05:12.466Z,18.90
2023-01-12T13:07:51.485Z,8.17
2023-01-12T13:10:32.944Z,8.47
2023-01-12T13:13:28.247Z,10.20
2023-01-12T13:16:46.985Z,11.43
2023-01-12T13:19:35.496Z,11.17
2023-01-12T13:22:28.243Z,10.97
2023-01-12T13:24:57.138Z,9.40
2023-01-12T13:27:52.434Z,10.43
2023-01-12T13:30:23.616Z,9.30
2023-01-12T13:32:59.022Z,13.93
2023-01-12T13:36:10.509Z,12.53
2023-01-12T13:39:08.317Z,14.50
2023-01-12T13:41:55.464Z,11.73
2023-01-12T13:44:28.571Z,12.97
2023-01-12T13:47:08.071Z,13.00
2023-01-12T13:49:43.760Z,13.93
2023-01-12T13:52:22.781Z,19.40
2023-01-12T13:54:52.860Z,11.33
2023-01-12T13:57:22.816Z,11.13
2023-01-12T13:59:58.807Z,16.50
2023-01-12T14:02:29.959Z,16.80
2023-01-12T14:05:37.874Z,11.43
2023-01-12T14:08:39.650Z,18.27
2023-01-12T14:11:34.743Z,11.60
2023-01-12T14:14:35.254Z,11.17
2023-01-12T14:17:31.845Z,17.93
2023-01-12T14:19:59.958Z,10.10
2023-01-12T14:22:28.119Z,13.03
2023-01-12T14:25:14.581Z,16.67
2023-01-12T14:27:52.070Z,11.20
2023-01-12T14:30:20.731Z,22.67
2023-01-12T14:32:51.249Z,14.03
2023-01-12T14:35:22.006Z,17.97
2023-01-12T14:37:52.823Z,12.03
2023-01-12T14:40:24.784Z,11.33
2023-01-12T14:43:13.551Z,24.83
2023-01-12T14:46:23.229Z,13.53
2023-01-12T14:49:03.123Z,15.43
2023-01-12T14:51:37.607Z,11.03
2023-01-12T14:54:24.031Z,20.67
2023-01-12T14:56:56.699Z,10.47
2023-01-12T14:59:36.162Z,14.50
2023-01-12T15:02:45.246Z,18.40
2023-01-12T15:05:22.264Z,15.87
2023-01-12T15:07:59.595Z,13.73
2023-01-12T15:10:31.334Z,21.00
2023-01-12T15:13:12.614Z,11.80
2023-01-12T15:16:10.776Z,21.40
2023-01-12T15:18:56.637Z,29.57
2023-01-12T15:21:57.639Z,33.43
2023-01-12T15:24:46.357Z,14.97
2023-01-12T15:27:16.950Z,23.43
2023-01-12T15:29:45.255Z,15.40
2023-01-12T15:32:21.331Z,24.17
2023-01-12T15:34:50.020Z,16.47
2023-01-12T15:37:19.473Z,18.83
2023-01-12T15:39:48.223Z,16.93
2023-01-12T15:42:18.406Z,13.90
2023-01-12T15:44:47.457Z,10.10
2023-01-12T15:47:19.142Z,33.23
2023-01-12T15:49:49.079Z,30.20
2023-01-12T15:52:20.015Z,11.37
2023-01-12T15:54:48.380Z,9.63
2023-01-12T15:57:17.368Z,8.63
2023-01-12T15:59:45.510Z,7.60
2023-01-12T16:02:33.851Z,9.53
2023-01-12T16:05:02.641Z,10.10
2023-01-12T16:07:31.535Z,9.93
2023-01-12T16:10:02.212Z,9.10
2023-01-12T16:12:32.024Z,9.43
2023-01-12T16:17:51.033Z,9.10
2023-01-12T16:20:23.896Z,9.03
2023-01-12T16:22:52.106Z,15.27
2023-01-12T16:25:20.359Z,10.30
2023-01-12T16:27:48.507Z,7.90
2023-01-12T16:30:17.154Z,9.60
2023-01-12T16:32:47.368Z,9.13
2023-01-12T16:35:16.485Z,10.37
2023-01-12T16:37:45.030Z,8.63
2023-01-12T16:40:14.187Z,10.17
2023-01-12T16:42:42.353Z,9.97
2023-01-12T16:45:11.244Z,11.33
2023-01-12T16:47:39.446Z,10.27
2023-01-12T16:50:09.875Z,11.67
2023-01-12T16:52:38.051Z,8.60
2023-01-12T16:55:06.790Z,15.80
2023-01-12T16:57:35.214Z,8.40
2023-01-12T17:00:05.457Z,8.73
2023-01-12T17:02:34.315Z,11.97
2023-01-12T17:05:03.072Z,17.53
2023-01-12T17:07:33.192Z,16.60
2023-01-12T17:10:01.692Z,12.90
2023-01-12T17:12:30.236Z,12.50
2023-01-12T17:14:59.116Z,8.43
2023-01-12T17:17:28.316Z,13.70
2023-01-12T17:19:57.419Z,9.30
2023-01-12T17:22:26.315Z,8.57
2023-01-12T17:24:56.437Z,12.30
2023-01-12T17:27:25.456Z,10.80
2023-01-12T17:29:54.337Z,8.63
2023-01-12T17:32:22.856Z,10.47
2023-01-12T17:34:51.409Z,9.90
2023-01-12T17:37:19.803Z,23.63
2023-01-12T17:39:48.425Z,32.17
2023-01-12T17:42:36.582Z,10.43
2023-01-12T17:45:06.734Z,10.13
2023-01-12T17:47:35.492Z,11.77
2023-01-12T17:50:04.199Z,11.20
2023-01-12T17:52:32.724Z,15.27
2023-01-12T17:55:01.251Z,13.17
2023-01-12T17:57:32.297Z,7.63
2023-01-12T18:00:01.206Z,8.60
2023-01-12T18:02:29.880Z,8.87
2023-01-12T18:04:58.610Z,9.37
2023-01-12T18:07:27.378Z,8.43
2023-01-12T18:09:55.968Z,9.00
2023-01-12T18:12:26.269Z,10.13
2023-01-12T18:14:56.712Z,12.50
2023-01-12T18:17:25.578Z,10.40
2023-01-12T18:19:54.442Z,12.33
2023-01-12T18:22:23.279Z,15.37
2023-01-12T18:24:52.131Z,15.00
2023-01-12T18:27:20.681Z,9.13
2023-01-12T18:29:49.064Z,9.20
2023-01-12T18:32:19.399Z,10.83
2023-01-12T18:34:51.046Z,9.77
2023-01-12T18:37:21.481Z,35.93
2023-01-12T18:39:50.782Z,20.23
2023-01-12T18:42:36.595Z,49.90
2023-01-12T18:45:05.776Z,20.73
2023-01-12T18:47:55.377Z,8.97
2023-01-12T18:50:41.050Z,14.80
2023-01-12T18:53:25.354Z,11.70
2023-01-12T18:55:55.874Z,14.50
2023-01-12T18:58:26.164Z,10.00
2023-01-12T19:00:55.116Z,12.97
2023-01-12T19:03:25.281Z,9.27
2023-01-12T19:06:00.667Z,10.87
2023-01-12T19:08:47.673Z,11.43
2023-01-12T19:11:17.759Z,11.17
2023-01-12T19:14:03.534Z,10.73
2023-01-12T19:16:49.725Z,9.50
2023-01-12T19:19:23.390Z,20.20
2023-01-12T19:22:09.311Z,12.00
2023-01-12T19:24:54.926Z,13.90
2023-01-12T19:27:40.694Z,16.80
2023-01-12T19:30:10.416Z,11.00
2023-01-12T19:32:38.685Z,10.83
2023-01-12T19:35:11.197Z,14.30
2023-01-12T19:37:40.679Z,36.90
2023-01-12T19:40:18.027Z,13.87
2023-01-12T19:43:03.445Z,13.80
2023-01-12T19:45:31.737Z,8.40
2023-01-12T19:47:59.911Z,10.00
2023-01-12T19:50:29.465Z,8.70
2023-01-12T19:52:57.822Z,17.50
2023-01-12T19:55:26.101Z,14.63
2023-01-12T19:57:54.671Z,10.00
2023-01-12T20:00:22.972Z,14.77
2023-01-12T20:02:51.510Z,11.17
2023-01-12T20:05:23.202Z,13.40
2023-01-12T20:07:53.799Z,13.07
2023-01-12T20:10:23.100Z,11.77
2023-01-12T20:12:52.555Z,12.87
2023-01-12T20:15:21.754Z,14.20
2023-01-12T20:17:50.149Z,16.83
2023-01-12T20:20:19.032Z,19.53
2023-01-12T20:22:49.546Z,13.90
2023-01-12T20:25:20.571Z,15.47
2023-01-12T20:27:51.286Z,13.57
2023-01-12T20:30:37.476Z,10.17
2023-01-12T20:33:07.407Z,12.07
2023-01-12T20:35:38.696Z,14.63
2023-01-12T20:38:15.659Z,9.50
2023-01-12T20:40:49.258Z,8.83
2023-01-12T20:43:20.662Z,12.93
2023-01-12T20:45:49.480Z,11.80
2023-01-12T20:48:17.756Z,11.23
2023-01-12T20:50:46.580Z,11.80
2023-01-12T20:53:15.826Z,10.10
2023-01-12T20:55:46.903Z,11.77
2023-01-12T20:58:15.543Z,9.47
2023-01-12T21:00:54.322Z,15.13
2023-01-12T21:03:23.224Z,9.30
2023-01-12T21:05:53.679Z,15.47
2023-01-12T21:08:24.431Z,11.33
2023-01-12T21:10:55.335Z,11.63
2023-01-12T21:13:26.144Z,12.10
2023-01-12T21:16:01.378Z,10.40
2023-01-12T21:18:30.639Z,9.73
2023-01-12T21:21:00.132Z,9.43
2023-01-12T21:23:30.403Z,12.87
2023-01-12T21:26:00.804Z,13.30
2023-01-12T21:28:30.601Z,12.17
2023-01-12T21:31:02.874Z,10.07
2023-01-12T21:33:31.376Z,24.73
2023-01-12T21:36:00.157Z,11.30
2023-01-12T21:38:28.804Z,11.10
2023-01-12T21:41:01.449Z,12.10
2023-01-12T21:43:31.363Z,8.10
2023-01-12T21:46:05.452Z,10.97
2023-01-12T21:48:33.692Z,14.47
2023-01-12T21:51:04.850Z,16.17
2023-01-12T21:53:32.972Z,11.30
2023-01-12T21:56:02.619Z,9.40
2023-01-12T21:58:35.242Z,11.73
2023-01-12T22:01:09.130Z,8.80
2023-01-12T22:03:37.320Z,10.57
2023-01-12T22:06:09.018Z,9.10
2023-01-12T22:08:38.585Z,12.40
2023-01-12T22:11:08.360Z,10.17
2023-01-12T22:13:38.124Z,10.20
2023-01-12T22:16:09.141Z,13.30
2023-01-12T22:18:39.400Z,14.80
2023-01-12T22:21:09.617Z,9.80
2023-01-12T22:23:41.612Z,12.10
2023-01-12T22:26:12.279Z,11.87
2023-01-12T22:28:43.926Z,17.03
2023-01-12T22:31:17.851Z,14.67
2023-01-12T22:33:47.038Z,12.20
2023-01-12T22:36:16.160Z,10.30
2023-01-12T22:38:44.345Z,11.33
2023-01-12T22:41:13.933Z,9.80
2023-01-12T22:43:44.754Z,9.23
2023-01-12T22:46:16.433Z,10.20
2023-01-12T22:48:44.719Z,10.40
2023-01-12T22:51:12.820Z,12.57
2023-01-12T22:53:41.125Z,12.40
2023-01-12T22:56:10.875Z,11.33
2023-01-12T22:58:39.016Z,10.83
2023-01-12T23:01:10.421Z,14.90
2023-01-12T23:03:38.828Z,14.60
2023-01-12T23:06:07.920Z,10.10
2023-01-12T23:08:36.010Z,8.00
2023-01-12T23:11:05.950Z,7.90
2023-01-12T23:13:34.183Z,11.63
2023-01-12T23:16:06.146Z,15.27
2023-01-12T23:18:38.584Z,10.00
2023-01-12T23:21:11.012Z,10.17
2023-01-12T23:23:39.593Z,8.50
2023-01-12T23:26:09.892Z,11.47
2023-01-12T23:28:41.434Z,10.30
2023-01-12T23:31:12.364Z,11.30
2023-01-12T23:33:43.086Z,9.83
2023-01-12T23:36:13.585Z,7.10
2023-01-12T23:38:41.690Z,9.67
2023-01-12T23:41:14.419Z,10.17
2023-01-12T23:43:43.107Z,10.07
2023-01-12T23:46:12.136Z,17.80
2023-01-12T23:48:41.946Z,8.07
2023-01-12T23:51:10.665Z,9.10
2023-01-12T23:53:38.803Z,13.07
2023-01-12T23:56:08.399Z,11.50
2023-01-12T23:58:36.893Z,10.27
